PWSweather.com
Personal Weather Stations
Station Observations
WISCHPK61
Green Bay Schmitt Park, Green Bay, WI 54311

Green Bay Schmitt ParkGreen Bay, WI 54311

Lat: 44.514277, Lon: -87.935067

Elevation: 735

Station Type: Acu Rite Pro Weather Center model 02032C

http://greenbayweathercam.com

High Low Average
Temperature 85.8°F29.9°C 66.9°F19.4°C 74.1°F23.4°C
Dew Point 85.4°F29.7°C 66.6°F19.2°C 73.8°F23.2°C
Winds 1.2 mph 1.9 kmh Calm Calm Calm SSWCalm SSW
Wind Gusts 2.3 mph3.7 kmh -- --
Humidity 99% 99% 99%
Pressure 29.27 in991.2 mb 29.11 in985.8 mb -
Precipitation 0.00 in0.0 mm - -
Hour Temp Dew Point Humidity Winds Wind Gusts Pressure Precip Precip Rate Daily Precip Total
12:00 AM 73.4°F23.0°C 73.1°F22.8°C 99% Calm Calm -- 29.15 in987.1 mb - 0.00 in0.0 mm 0.00 in0.0 mm
01:00 AM 73.4°F23.0°C 73.1°F22.8°C 99% Calm Calm -- 29.13 in986.5 mb - 0.00 in0.0 mm 0.00 in0.0 mm
02:00 AM 72.0°F22.2°C 71.7°F22.1°C 99% Calm Calm 2.3 mph3.7 kmh 29.14 in986.8 mb - 0.00 in0.0 mm 0.00 in0.0 mm
03:00 AM 68.7°F20.4°C 68.4°F20.2°C 99% Calm Calm -- 29.11 in985.8 mb - 0.00 in0.0 mm 0.00 in0.0 mm
04:00 AM 67.8°F19.9°C 67.5°F19.7°C 99% Calm Calm -- 29.14 in986.8 mb - 0.00 in0.0 mm 0.00 in0.0 mm
05:00 AM 67.6°F19.8°C 67.3°F19.6°C 99% Calm Calm -- 29.14 in986.8 mb - 0.00 in0.0 mm 0.00 in0.0 mm
06:00 AM 67.1°F19.5°C 66.8°F19.3°C 99% Calm Calm -- 29.15 in987.1 mb - 0.00 in0.0 mm 0.00 in0.0 mm
07:00 AM 66.9°F19.4°C 66.6°F19.2°C 99% Calm Calm -- 29.16 in987.5 mb - 0.00 in0.0 mm 0.00 in0.0 mm
08:00 AM 68.3°F20.2°C 68.0°F20.0°C 99% Calm Calm -- 29.17 in987.8 mb - 0.00 in0.0 mm 0.00 in0.0 mm
09:00 AM 70.5°F21.4°C 70.2°F21.2°C 99% Calm Calm 1.2 mph1.9 kmh 29.18 in988.1 mb - 0.00 in0.0 mm 0.00 in0.0 mm
10:00 AM 73.6°F23.1°C 73.3°F22.9°C 99% Calm Calm -- 29.19 in988.5 mb - 0.00 in0.0 mm 0.00 in0.0 mm
11:00 AM 74.8°F23.8°C 74.5°F23.6°C 99% 1.2 mph W1.9 kmh W 1.2 mph1.9 kmh 29.21 in989.2 mb - 0.00 in0.0 mm 0.00 in0.0 mm
12:00 PM 77.0°F25.0°C 76.7°F24.8°C 99% 1.2 mph WNW1.9 kmh WNW 1.2 mph1.9 kmh 29.22 in989.5 mb - 0.00 in0.0 mm 0.00 in0.0 mm
01:00 PM 80.8°F27.1°C 80.5°F26.9°C 99% 1.2 mph N1.9 kmh N 1.2 mph1.9 kmh 29.22 in989.5 mb - 0.00 in0.0 mm 0.00 in0.0 mm
02:00 PM 85.8°F29.9°C 85.4°F29.7°C 99% Calm Calm -- 29.22 in989.5 mb - 0.00 in0.0 mm 0.00 in0.0 mm
03:00 PM 84.6°F29.2°C 84.3°F29.1°C 99% Calm Calm -- 29.21 in989.2 mb - 0.00 in0.0 mm 0.00 in0.0 mm
04:00 PM 84.6°F29.2°C 84.3°F29.1°C 99% Calm Calm -- 29.20 in988.8 mb - 0.00 in0.0 mm 0.00 in0.0 mm
05:00 PM 82.9°F28.3°C 82.6°F28.1°C 99% Calm Calm -- 29.21 in989.2 mb - 0.00 in0.0 mm 0.00 in0.0 mm
06:00 PM 81.4°F27.4°C 81.1°F27.3°C 99% Calm Calm -- 29.22 in989.5 mb - 0.00 in0.0 mm 0.00 in0.0 mm
07:00 PM 79.2°F26.2°C 78.9°F26.1°C 99% Calm Calm -- 29.23 in989.8 mb - 0.00 in0.0 mm 0.00 in0.0 mm
08:00 PM 75.4°F24.1°C 75.1°F23.9°C 99% Calm Calm -- 29.23 in989.8 mb - 0.00 in0.0 mm 0.00 in0.0 mm
09:00 PM 71.6°F22.0°C 71.3°F21.8°C 99% Calm Calm -- 29.25 in990.5 mb - 0.00 in0.0 mm 0.00 in0.0 mm
10:00 PM 69.6°F20.9°C 69.3°F20.7°C 99% Calm Calm -- 29.26 in990.9 mb - 0.00 in0.0 mm 0.00 in0.0 mm
11:00 PM 68.4°F20.2°C 68.1°F20.1°C 99% Calm Calm -- 29.27 in991.2 mb - 0.00 in0.0 mm 0.00 in0.0 mm